»·PEaware :: N248PT KSNA-KRNM

N248PT :: KSNA-KRNM

FLIGHT INFORMATION

Flight Status: Arrived
Operator: Privately registered:
United States
More flights under this callsign
Pilot: Joe C. (32102)
Aircraft: BEECH AIRCRAFT DEBONAIR BONANZA
(BE33)
More flights by this aircraft type
Origin: KSNA John Wayne-Orange Co
United States
Destination: KRNM Ramona
United States
More flights between these airports :: More routes between these airports
Route: +
File this flight plan on PilotEdge
Remarks: FF
Altitude:
(Current/Filed)
5,500ft
Speed:
(Current/Filed)
0kts
Departed: 18-Nov-20 03:34 PM
Arrived: 18-Nov-20 04:01 PM
Distance/Time
Traveled:
61nm/0:27
Distance/Time
To Go:
Arrived

Flight Plot

Page will automatically refresh every two minutes.


Map Options




Map Legend


Flown Route
Filed Route
Departure Airport
Arrival Airport
Navaid (VOR, NDB)
Fix

Horizontal Profiles

Position Reports

Time Latitude Longitude Heading Altitude Ground
Speed
18-Nov-20 15:20 33.674969 -117.871786 37 59ft 0kts
18-Nov-20 15:21 33.674969 -117.871786 37 59ft 0kts
18-Nov-20 15:22 33.674969 -117.871786 37 59ft 0kts
18-Nov-20 15:23 33.674944 -117.871560 127 59ft 0kts
18-Nov-20 15:24 33.675147 -117.870676 29 59ft 12kts
18-Nov-20 15:25 33.677887 -117.868994 25 59ft 13kts
18-Nov-20 15:26 33.681231 -117.866860 71 59ft 10kts
18-Nov-20 15:27 33.681255 -117.866759 76 59ft 0kts
18-Nov-20 15:28 33.681255 -117.866760 76 59ft 0kts
18-Nov-20 15:29 33.681255 -117.866759 76 59ft 0kts
18-Nov-20 15:30 33.681255 -117.866759 76 59ft 0kts
18-Nov-20 15:31 33.681255 -117.866759 76 59ft 0kts
18-Nov-20 15:32 33.681097 -117.866177 118 59ft 14kts
18-Nov-20 15:33 33.667800 -117.873523 206 381ft 90kts
18-Nov-20 15:34 33.662381 -117.845602 83 1415ft 111kts
18-Nov-20 15:35 33.666273 -117.808877 85 2415ft 111kts
18-Nov-20 15:36 33.649657 -117.782848 155 3314ft 111kts
18-Nov-20 15:37 33.620153 -117.770955 162 4182ft 114kts
18-Nov-20 15:38 33.591888 -117.751879 148 4979ft 120kts
18-Nov-20 15:39 33.562391 -117.730842 149 5573ft 128kts
18-Nov-20 15:40 33.531958 -117.703468 137 5714ft 145kts
18-Nov-20 15:41 33.499365 -117.669191 142 5516ft 162kts
18-Nov-20 15:42 33.465183 -117.634441 141 5522ft 162kts
18-Nov-20 15:43 33.430835 -117.598840 140 5521ft 164kts
18-Nov-20 15:44 33.396546 -117.562998 140 5521ft 164kts
18-Nov-20 15:45 33.361099 -117.528111 144 5521ft 164kts
18-Nov-20 15:46 33.324913 -117.494789 144 5521ft 165kts
18-Nov-20 15:47 33.288661 -117.461516 144 5529ft 164kts
18-Nov-20 15:48 33.252286 -117.428192 144 5529ft 165kts
18-Nov-20 15:49 33.226781 -117.383156 116 5531ft 167kts
18-Nov-20 15:50 33.206871 -117.332722 117 5530ft 167kts
18-Nov-20 15:51 33.186829 -117.282536 116 5528ft 167kts
18-Nov-20 15:52 33.166807 -117.232423 117 5528ft 167kts
18-Nov-20 15:53 33.146677 -117.182146 117 5529ft 167kts
18-Nov-20 15:54 33.125951 -117.130569 117 5076ft 186kts
18-Nov-20 15:55 33.102623 -117.072572 116 4022ft 197kts
18-Nov-20 15:56 33.078790 -117.013360 116 2995ft 195kts
18-Nov-20 15:57 33.056304 -116.956965 114 2223ft 171kts
18-Nov-20 15:58 33.048305 -116.914792 94 2216ft 92kts
18-Nov-20 15:59 33.038962 -116.899322 234 1771ft 75kts
18-Nov-20 16:00 33.039505 -116.917435 281 1390ft 30kts
18-Nov-20 16:01 33.040315 -116.919930 359 1392ft 0kts
18-Nov-20 16:02 33.040447 -116.919283 98 1392ft 14kts
18-Nov-20 16:03 33.040563 -116.917073 290 1392ft 0kts
18-Nov-20 16:04 33.040563 -116.917073 290 1392ft 0kts
18-Nov-20 16:05 33.040563 -116.917073 290 1392ft 0kts
18-Nov-20 16:06 33.040563 -116.917073 290 1392ft 0kts
18-Nov-20 16:07 33.040563 -116.917073 290 1392ft 0kts
18-Nov-20 16:08 33.040563 -116.917073 290 1392ft 0kts
18-Nov-20 16:09 33.040563 -116.917073 290 1392ft 0kts
18-Nov-20 16:10 33.040563 -116.917073 290 1392ft 0kts
18-Nov-20 16:11 33.040563 -116.917073 290 1392ft 0kts
18-Nov-20 16:12 33.040563 -116.917073 290 1392ft 0kts
18-Nov-20 16:13 33.040563 -116.917073 290 1392ft 0kts
18-Nov-20 16:14 33.040563 -116.917073 290 1392ft 0kts

Navigation Log

Ident Type
Flight plan parsing failed, navigation log unavailable